Time;durP1;ratioP1;P1;durP2;ratioP2;P2;SDS_P1;SDS_P2;PMS_P1;PMS_P2;Temp;Humidity;BMP_temperature;BMP_pressure;BME280_temperature;BME280_humidity;BME280_pressure;Samples;Min_cycle;Max_cycle;Signal;HPM_P1;HPM_P2
2021/12/28 00:01:44;;;;;;;;;;;5.50;99.90;;;;;;4913008;29;20303;-85
2021/12/28 00:04:12;;;;;;;;;;;5.60;99.90;;;;;;4933133;29;19958;-84
2021/12/28 00:06:41;;;;;;;;;;;5.60;99.90;;;;;;4917123;29;19923;-84
2021/12/28 00:09:07;;;;;;;;;;;5.60;99.90;;;;;;4918181;29;19978;-84
2021/12/28 00:11:32;;;;;;;;;;;5.70;99.90;;;;;;4919065;29;19923;-83
2021/12/28 00:14:01;;;;;;;;;;;5.70;99.90;;;;;;4937568;29;19922;-84
2021/12/28 00:16:31;;;;;;;;;;;5.80;99.90;;;;;;4931404;29;19922;-83
2021/12/28 00:18:57;;;;;;;;;;;5.80;99.90;;;;;;4934703;29;20014;-84
2021/12/28 00:21:23;;;;;;;;;;;5.80;99.90;;;;;;4930418;29;20013;-83
2021/12/28 00:23:49;;;;;;;;;;;5.80;99.90;;;;;;4931588;29;19935;-83
2021/12/28 00:26:15;;;;;;;;;;;5.90;99.90;;;;;;4917942;29;19926;-83
2021/12/28 00:28:42;;;;;;;;;;;5.90;99.90;;;;;;4918825;29;19973;-83
2021/12/28 00:31:08;;;;;;;;;;;5.90;99.90;;;;;;4922302;29;19990;-83
2021/12/28 00:33:34;;;;;;;;;;;6.00;99.90;;;;;;4919270;29;19926;-84
2021/12/28 00:35:59;;;;;;;;;;;5.90;99.90;;;;;;4916464;29;19990;-84
2021/12/28 00:38:26;;;;;;;;;;;5.90;99.90;;;;;;4916476;29;20391;-84
2021/12/28 00:40:53;;;;;;;;;;;5.90;99.90;;;;;;4917151;29;20499;-84
2021/12/28 00:43:19;;;;;;;;;;;6.10;99.90;;;;;;4916260;29;19924;-84
2021/12/28 00:45:45;;;;;;;;;;;6.00;99.90;;;;;;4918788;29;19972;-85
2021/12/28 00:48:10;;;;;;;;;;;6.10;99.90;;;;;;4916642;29;19950;-85
2021/12/28 00:50:36;;;;;;;;;;;6.10;99.90;;;;;;4917636;29;19926;-84
2021/12/28 00:53:02;;;;;;;;;;;6.20;99.90;;;;;;4919031;29;19923;-85
2021/12/28 00:55:30;;;;;;;;;;;6.20;99.90;;;;;;4935340;29;19966;-85
2021/12/28 00:57:56;;;;;;;;;;;6.30;99.90;;;;;;4934884;29;20412;-84
2021/12/28 01:00:24;;;;;;;;;;;6.30;99.90;;;;;;4919795;29;20014;-85
2021/12/28 01:02:50;;;;;;;;;;;6.20;99.90;;;;;;4918541;29;19931;-84
2021/12/28 01:05:16;;;;;;;;;;;6.20;99.90;;;;;;4917923;29;19929;-85
2021/12/28 01:07:42;;;;;;;;;;;6.30;99.90;;;;;;4918481;29;20297;-85
2021/12/28 01:10:10;;;;;;;;;;;6.30;99.90;;;;;;4935668;29;19928;-85
2021/12/28 01:12:36;;;;;;;;;;;6.20;99.90;;;;;;4917681;29;19923;-85
2021/12/28 01:15:06;;;;;;;;;;;6.20;99.90;;;;;;4918458;29;19926;-85
2021/12/28 01:17:33;;;;;;;;;;;6.40;99.90;;;;;;4933459;29;19929;-85
2021/12/28 01:19:58;;;;;;;;;;;6.30;99.90;;;;;;4917557;29;20018;-85
2021/12/28 01:22:24;;;;;;;;;;;6.30;99.90;;;;;;4911752;23;19955;-85
2021/12/28 01:24:49;;;;;;;;;;;6.40;99.90;;;;;;4890895;29;19934;-85
2021/12/28 01:27:15;;;;;;;;;;;6.50;99.90;;;;;;4887729;29;19970;-85
2021/12/28 01:29:40;;;;;;;;;;;6.40;99.90;;;;;;4889034;29;20348;-85
2021/12/28 01:32:08;;;;;;;;;;;6.40;99.90;;;;;;4891029;29;19934;-85
2021/12/28 01:34:33;;;;;;;;;;;6.40;99.90;;;;;;4888446;29;19923;-84
2021/12/28 01:37:02;;;;;;;;;;;6.40;99.90;;;;;;4890238;29;19923;-85
2021/12/28 01:39:28;;;;;;;;;;;6.60;99.90;;;;;;4888588;29;20413;-85
2021/12/28 01:41:53;;;;;;;;;;;6.40;99.90;;;;;;4889064;29;19931;-85
2021/12/28 01:44:19;;;;;;;;;;;6.40;99.90;;;;;;4890382;29;19930;-84
2021/12/28 01:46:44;;;;;;;;;;;6.30;99.90;;;;;;4904630;29;20286;-84
2021/12/28 01:49:10;;;;;;;;;;;6.40;99.90;;;;;;4888148;29;19923;-84
2021/12/28 01:51:36;;;;;;;;;;;6.40;99.90;;;;;;4907936;29;19954;-83
2021/12/28 01:54:03;;;;;;;;;;;6.40;99.90;;;;;;4885350;29;19977;-85
2021/12/28 01:56:34;;;;;;;;;;;6.40;99.90;;;;;;4889598;29;20557;-84
2021/12/28 01:59:00;;;;;;;;;;;6.90;99.90;;;;;;4889043;29;19958;-85
2021/12/28 02:01:27;;;;;;;;;;;6.50;99.90;;;;;;4891538;29;19923;-84
2021/12/28 02:03:52;;;;;;;;;;;6.50;99.90;;;;;;4889342;29;19924;-84
2021/12/28 02:06:18;;;;;;;;;;;6.50;99.90;;;;;;4889775;29;19923;-85
2021/12/28 02:08:44;;;;;;;;;;;6.50;99.90;;;;;;4887502;29;19923;-85
2021/12/28 02:11:10;;;;;;;;;;;6.50;99.90;;;;;;4890957;29;20071;-85
2021/12/28 02:13:36;;;;;;;;;;;6.50;99.90;;;;;;4887594;29;19930;-85
2021/12/28 02:16:02;;;;;;;;;;;6.40;99.90;;;;;;4891087;29;19924;-85
2021/12/28 02:18:29;;;;;;;;;;;6.50;99.90;;;;;;4890038;29;19938;-85
2021/12/28 02:20:55;;;;;;;;;;;6.50;99.90;;;;;;4888888;29;19927;-84
2021/12/28 02:23:21;;;;;;;;;;;6.50;99.90;;;;;;4888614;29;20423;-84
2021/12/28 02:25:46;;;;;;;;;;;6.50;99.90;;;;;;4906674;29;19930;-85
2021/12/28 02:28:16;;;;;;;;;;;6.50;99.90;;;;;;4888631;29;19927;-86
2021/12/28 02:30:45;;;;;;;;;;;6.60;99.90;;;;;;4906780;29;19983;-85
2021/12/28 02:33:11;;;;;;;;;;;6.50;99.90;;;;;;4893872;29;19974;-85
2021/12/28 02:35:37;;;;;;;;;;;6.90;99.90;;;;;;4891143;29;19927;-85
2021/12/28 02:38:04;;;;;;;;;;;6.60;99.90;;;;;;4895270;29;19930;-85
2021/12/28 02:40:30;;;;;;;;;;;7.00;99.90;;;;;;4890908;29;20422;-85
2021/12/28 02:42:57;;;;;;;;;;;6.60;99.90;;;;;;4891111;29;19923;-85
2021/12/28 02:45:26;;;;;;;;;;;6.70;99.90;;;;;;4894614;29;19974;-84
2021/12/28 02:48:01;;;;;;;;;;;6.70;99.90;;;;;;4893992;29;19919;-84
2021/12/28 02:50:34;;;;;;;;;;;6.70;99.90;;;;;;4890019;29;19927;-85
2021/12/28 02:53:00;;;;;;;;;;;6.70;99.90;;;;;;4898005;29;19919;-85
2021/12/28 02:55:28;;;;;;;;;;;6.70;99.90;;;;;;4907825;29;20290;-84
2021/12/28 02:57:58;;;;;;;;;;;6.70;99.90;;;;;;4910579;29;19923;-84
2021/12/28 03:00:36;;;;;;;;;;;6.70;99.90;;;;;;4889314;29;19930;-84
2021/12/28 03:03:09;;;;;;;;;;;6.60;99.90;;;;;;4891508;29;19923;-84
2021/12/28 03:05:36;;;;;;;;;;;6.70;99.90;;;;;;4892484;29;19970;-84
2021/12/28 03:08:01;;;;;;;;;;;6.70;99.90;;;;;;4894438;29;19923;-84
2021/12/28 03:10:27;;;;;;;;;;;6.60;99.90;;;;;;4910550;29;19930;-84
2021/12/28 03:12:53;;;;;;;;;;;6.70;99.90;;;;;;4890741;29;19931;-84
2021/12/28 03:15:19;;;;;;;;;;;6.70;99.90;;;;;;4893114;29;20375;-84
2021/12/28 03:17:44;;;;;;;;;;;6.80;99.90;;;;;;4889773;29;19975;-84
2021/12/28 03:20:14;;;;;;;;;;;6.80;99.90;;;;;;4892227;29;20018;-84
2021/12/28 03:22:40;;;;;;;;;;;6.90;99.90;;;;;;4892121;29;19923;-84
2021/12/28 03:25:07;;;;;;;;;;;6.90;99.90;;;;;;4908531;29;20038;-84
2021/12/28 03:27:32;;;;;;;;;;;6.80;99.90;;;;;;4891932;29;19928;-85
2021/12/28 03:29:58;;;;;;;;;;;6.90;99.90;;;;;;4890819;29;19923;-85
2021/12/28 03:32:23;;;;;;;;;;;6.80;99.90;;;;;;4892679;29;20414;-84
2021/12/28 03:34:49;;;;;;;;;;;6.70;99.90;;;;;;4894000;29;19949;-85
2021/12/28 03:37:14;;;;;;;;;;;6.80;99.90;;;;;;4890770;29;20359;-84
2021/12/28 03:39:40;;;;;;;;;;;6.80;99.90;;;;;;4892013;29;19923;-84
2021/12/28 03:42:05;;;;;;;;;;;6.80;99.90;;;;;;4892310;29;19923;-84
2021/12/28 03:44:31;;;;;;;;;;;6.80;99.90;;;;;;4890964;29;19993;-84
2021/12/28 03:46:57;;;;;;;;;;;6.80;99.90;;;;;;4894585;29;19938;-85
2021/12/28 03:49:22;;;;;;;;;;;6.80;99.90;;;;;;4893145;29;20408;-84
2021/12/28 03:51:48;;;;;;;;;;;6.90;99.90;;;;;;4889846;29;19923;-84
2021/12/28 03:54:14;;;;;;;;;;;6.90;99.90;;;;;;4889771;29;19927;-84
2021/12/28 03:56:39;;;;;;;;;;;6.90;99.90;;;;;;4892042;29;19930;-85
2021/12/28 03:59:05;;;;;;;;;;;6.90;99.90;;;;;;4908450;29;20359;-85
2021/12/28 04:01:30;;;;;;;;;;;6.90;99.90;;;;;;4906811;29;20038;-84
2021/12/28 04:03:56;;;;;;;;;;;6.90;99.90;;;;;;4890304;29;19927;-85
2021/12/28 04:06:22;;;;;;;;;;;7.00;99.90;;;;;;4893744;29;20034;-85
2021/12/28 04:08:48;;;;;;;;;;;7.00;99.90;;;;;;4892946;29;19919;-86
2021/12/28 04:13:47;;;;;;;;;;;7.00;99.90;;;;;;4886494;29;19923;-85
2021/12/28 04:16:13;;;;;;;;;;;7.00;99.90;;;;;;4892272;29;19990;-85
2021/12/28 04:18:39;;;;;;;;;;;7.10;99.90;;;;;;4889823;29;20415;-85
2021/12/28 04:21:04;;;;;;;;;;;7.00;99.90;;;;;;4891587;29;20352;-85
2021/12/28 04:23:30;;;;;;;;;;;6.90;99.90;;;;;;4890530;29;19930;-85
2021/12/28 04:25:56;;;;;;;;;;;7.80;99.90;;;;;;4891193;29;19930;-85
2021/12/28 04:28:21;;;;;;;;;;;6.90;99.90;;;;;;4890600;29;20419;-85
2021/12/28 04:30:47;;;;;;;;;;;6.90;99.90;;;;;;4889845;29;19933;-85
2021/12/28 04:33:15;;;;;;;;;;;6.90;99.90;;;;;;4894889;29;19930;-85
2021/12/28 04:35:41;;;;;;;;;;;6.90;99.90;;;;;;4888935;29;20427;-85
2021/12/28 04:38:09;;;;;;;;;;;6.90;99.90;;;;;;4892447;29;20023;-85
2021/12/28 04:40:35;;;;;;;;;;;6.90;99.90;;;;;;4889978;29;20367;-85
2021/12/28 04:43:00;;;;;;;;;;;8.00;99.90;;;;;;4891139;29;20006;-84
2021/12/28 04:45:26;;;;;;;;;;;6.80;99.90;;;;;;4890629;29;19923;-84
2021/12/28 04:47:52;;;;;;;;;;;6.80;99.90;;;;;;4890626;29;20343;-85
2021/12/28 04:50:17;;;;;;;;;;;6.90;99.90;;;;;;4905851;29;19982;-84
2021/12/28 04:52:43;;;;;;;;;;;6.90;99.90;;;;;;4892452;29;19945;-84
2021/12/28 04:55:12;;;;;;;;;;;6.90;99.90;;;;;;4888572;29;20401;-84
2021/12/28 04:57:38;;;;;;;;;;;6.90;99.90;;;;;;4888153;29;20014;-85
2021/12/28 05:00:05;;;;;;;;;;;6.90;99.90;;;;;;4891802;29;20018;-84
2021/12/28 05:02:31;;;;;;;;;;;6.90;99.90;;;;;;4891236;29;19978;-84
2021/12/28 05:04:56;;;;;;;;;;;6.90;99.90;;;;;;4890527;29;19974;-85
2021/12/28 05:07:22;;;;;;;;;;;6.90;99.90;;;;;;4890386;29;19919;-85
2021/12/28 05:09:50;;;;;;;;;;;6.90;99.90;;;;;;4889573;29;19924;-85
2021/12/28 05:12:16;;;;;;;;;;;6.90;99.90;;;;;;4890373;29;19965;-85
2021/12/28 05:14:42;;;;;;;;;;;6.80;99.90;;;;;;4888977;29;19951;-85
2021/12/28 05:17:08;;;;;;;;;;;6.80;99.90;;;;;;4906496;29;20000;-85
2021/12/28 05:19:34;;;;;;;;;;;6.90;99.90;;;;;;4888218;29;19971;-85
2021/12/28 05:22:00;;;;;;;;;;;6.90;99.90;;;;;;4908245;29;20335;-85
2021/12/28 05:24:25;;;;;;;;;;;6.90;99.90;;;;;;4888462;29;20371;-85
2021/12/28 05:26:52;;;;;;;;;;;6.90;99.90;;;;;;4888429;29;20025;-86
2021/12/28 05:29:21;;;;;;;;;;;7.00;99.90;;;;;;4890497;29;19930;-86
2021/12/28 05:31:49;;;;;;;;;;;7.90;99.90;;;;;;4887792;23;19927;-85
2021/12/28 05:34:15;;;;;;;;;;;6.90;99.90;;;;;;4876804;29;20363;-85
2021/12/28 05:36:40;;;;;;;;;;;6.90;99.90;;;;;;4879095;29;20389;-85
2021/12/28 05:39:06;;;;;;;;;;;7.10;99.90;;;;;;4878069;29;20390;-85
2021/12/28 05:41:31;;;;;;;;;;;6.90;99.90;;;;;;4879520;29;19979;-85
2021/12/28 05:43:57;;;;;;;;;;;8.20;99.90;;;;;;4879884;29;19988;-85
2021/12/28 05:46:22;;;;;;;;;;;6.90;99.90;;;;;;4879910;29;19931;-85
2021/12/28 05:48:48;;;;;;;;;;;6.90;99.90;;;;;;4880458;29;20439;-85
2021/12/28 05:51:14;;;;;;;;;;;6.80;99.90;;;;;;4880379;29;19931;-86
2021/12/28 05:53:40;;;;;;;;;;;6.80;99.90;;;;;;4879780;29;19924;-85
2021/12/28 05:56:05;;;;;;;;;;;6.80;99.90;;;;;;4897323;29;19930;-86
2021/12/28 05:58:31;;;;;;;;;;;6.80;99.90;;;;;;4896433;29;19924;-85
2021/12/28 06:00:57;;;;;;;;;;;6.80;99.90;;;;;;4880008;29;19971;-85
2021/12/28 06:03:23;;;;;;;;;;;6.80;99.90;;;;;;4880592;29;19924;-86
2021/12/28 06:05:48;;;;;;;;;;;6.90;99.90;;;;;;4876502;29;19931;-85
2021/12/28 06:08:14;;;;;;;;;;;6.90;99.90;;;;;;4883728;29;19923;-86
2021/12/28 06:10:40;;;;;;;;;;;6.90;99.90;;;;;;4899748;29;19924;-86
2021/12/28 06:13:06;;;;;;;;;;;6.90;99.90;;;;;;4884088;29;19962;-86
2021/12/28 06:15:31;;;;;;;;;;;6.80;99.90;;;;;;4883228;29;20039;-86
2021/12/28 06:17:57;;;;;;;;;;;6.80;99.90;;;;;;4884082;29;19931;-86
2021/12/28 06:20:22;;;;;;;;;;;6.80;99.90;;;;;;4883504;29;19934;-86
2021/12/28 06:22:48;;;;;;;;;;;6.70;99.90;;;;;;4883601;29;19927;-85
2021/12/28 06:25:17;;;;;;;;;;;6.70;99.90;;;;;;4882167;29;19927;-86
2021/12/28 06:27:42;;;;;;;;;;;6.70;99.90;;;;;;4882254;29;19927;-85
2021/12/28 06:30:08;;;;;;;;;;;6.70;99.90;;;;;;4883739;29;21361;-85
2021/12/28 06:32:34;;;;;;;;;;;6.60;99.90;;;;;;4883699;29;19946;-86
2021/12/28 06:34:59;;;;;;;;;;;6.70;99.90;;;;;;4883311;29;19951;-86
2021/12/28 06:37:25;;;;;;;;;;;6.70;99.90;;;;;;4883396;29;19966;-86
2021/12/28 06:39:50;;;;;;;;;;;7.20;99.90;;;;;;4883241;29;19952;-86
2021/12/28 06:42:16;;;;;;;;;;;6.70;99.90;;;;;;4881142;29;20352;-85
2021/12/28 06:44:44;;;;;;;;;;;6.70;99.90;;;;;;4883425;29;19939;-85
2021/12/28 06:47:10;;;;;;;;;;;6.70;99.90;;;;;;4882910;29;20372;-85
2021/12/28 06:49:35;;;;;;;;;;;7.60;99.90;;;;;;4882558;29;19930;-86
2021/12/28 06:52:06;;;;;;;;;;;7.50;99.90;;;;;;4879819;29;19923;-85
2021/12/28 06:54:36;;;;;;;;;;;6.70;99.90;;;;;;4881175;29;19923;-84
2021/12/28 06:57:07;;;;;;;;;;;6.70;99.90;;;;;;4882697;29;19970;-86
2021/12/28 06:59:34;;;;;;;;;;;6.70;99.90;;;;;;4899907;29;19923;-85
2021/12/28 07:02:00;;;;;;;;;;;6.80;99.90;;;;;;4882088;29;19961;-86
2021/12/28 07:04:25;;;;;;;;;;;6.80;99.90;;;;;;4881851;29;19924;-86
2021/12/28 07:06:51;;;;;;;;;;;7.20;99.90;;;;;;4883183;29;19931;-86
2021/12/28 07:09:16;;;;;;;;;;;6.70;99.90;;;;;;4883651;29;20021;-84
2021/12/28 07:11:42;;;;;;;;;;;6.80;99.90;;;;;;4882639;29;19923;-84
2021/12/28 07:14:07;;;;;;;;;;;6.90;99.90;;;;;;4883579;29;20296;-85
2021/12/28 07:16:33;;;;;;;;;;;6.90;99.90;;;;;;4880033;29;19930;-85
2021/12/28 07:18:58;;;;;;;;;;;6.90;99.90;;;;;;4881729;29;19923;-86
2021/12/28 07:21:24;;;;;;;;;;;7.00;99.90;;;;;;4878888;29;19920;-86
2021/12/28 07:23:52;;;;;;;;;;;6.90;99.90;;;;;;4881717;29;20589;-85
2021/12/28 07:26:18;;;;;;;;;;;7.00;99.90;;;;;;4881902;29;19943;-86
2021/12/28 07:28:43;;;;;;;;;;;7.00;99.90;;;;;;4885542;29;19919;-85
2021/12/28 07:31:09;;;;;;;;;;;7.00;99.90;;;;;;4891303;29;20335;-86
2021/12/28 07:33:34;;;;;;;;;;;7.10;99.90;;;;;;4889122;29;19924;-87
2021/12/28 07:36:00;;;;;;;;;;;7.00;99.90;;;;;;4887411;29;19931;-86
2021/12/28 07:38:25;;;;;;;;;;;7.10;99.90;;;;;;4886736;29;19931;-86
2021/12/28 07:40:57;;;;;;;;;;;7.00;99.90;;;;;;4887141;29;20268;-86
2021/12/28 07:43:25;;;;;;;;;;;7.80;99.90;;;;;;4882857;29;19930;-86
2021/12/28 07:45:54;;;;;;;;;;;7.00;99.90;;;;;;4878887;29;20303;-86
2021/12/28 07:48:20;;;;;;;;;;;7.00;99.90;;;;;;4881374;29;20287;-86
2021/12/28 07:50:51;;;;;;;;;;;6.90;99.90;;;;;;4882452;29;19923;-85
2021/12/28 07:53:17;;;;;;;;;;;7.00;99.90;;;;;;4882074;29;20430;-86
2021/12/28 07:55:42;;;;;;;;;;;7.00;99.90;;;;;;4881705;29;19927;-86
2021/12/28 07:58:11;;;;;;;;;;;7.00;99.90;;;;;;4879192;29;19950;-86
2021/12/28 08:00:36;;;;;;;;;;;6.90;99.90;;;;;;4881260;29;19923;-87
2021/12/28 08:03:04;;;;;;;;;;;7.00;99.90;;;;;;4882211;29;20006;-85
2021/12/28 08:05:34;;;;;;;;;;;7.00;99.90;;;;;;4898216;29;20410;-86
2021/12/28 08:08:00;;;;;;;;;;;7.00;99.90;;;;;;4881238;29;19954;-87
2021/12/28 08:10:26;;;;;;;;;;;7.00;99.90;;;;;;4881552;29;20407;-87
2021/12/28 08:12:56;;;;;;;;;;;7.00;99.90;;;;;;4881817;29;20387;-86
2021/12/28 08:15:23;;;;;;;;;;;7.10;99.90;;;;;;4881194;29;20375;-85
2021/12/28 08:17:48;;;;;;;;;;;7.10;99.90;;;;;;4881433;29;19927;-86
2021/12/28 08:20:15;;;;;;;;;;;7.00;99.90;;;;;;4883358;29;19930;-93
2021/12/28 08:22:41;;;;;;;;;;;7.00;99.90;;;;;;4883344;29;19971;-90
2021/12/28 08:25:10;;;;;;;;;;;7.00;99.90;;;;;;4883707;29;19923;-86
2021/12/28 08:27:38;;;;;;;;;;;7.00;99.90;;;;;;4881251;29;20034;-81
2021/12/28 08:30:05;;;;;;;;;;;7.10;99.90;;;;;;4880305;29;19924;-81
2021/12/28 08:32:33;;;;;;;;;;;7.00;99.90;;;;;;4881026;29;19975;-80
2021/12/28 08:34:58;;;;;;;;;;;7.00;99.90;;;;;;4881013;29;19975;-81
2021/12/28 08:37:24;;;;;;;;;;;7.00;99.90;;;;;;4875821;29;19931;-81
2021/12/28 08:39:50;;;;;;;;;;;7.00;99.90;;;;;;4855547;29;19928;-87
2021/12/28 08:42:15;;;;;;;;;;;7.00;99.90;;;;;;4873238;29;19924;-78
2021/12/28 08:44:43;;;;;;;;;;;7.00;99.90;;;;;;4877158;29;19935;-86
2021/12/28 08:47:09;;;;;;;;;;;7.80;99.90;;;;;;4855664;29;20327;-80
2021/12/28 08:49:34;;;;;;;;;;;7.10;99.90;;;;;;4854843;29;19932;-82
2021/12/28 08:52:00;;;;;;;;;;;7.10;99.90;;;;;;4866499;29;19923;-82
2021/12/28 08:54:29;;;;;;;;;;;7.30;99.90;;;;;;4862405;29;19924;-77
2021/12/28 08:56:54;;;;;;;;;;;7.20;99.90;;;;;;4855034;29;19965;-78
2021/12/28 08:59:20;;;;;;;;;;;7.30;99.90;;;;;;4877735;29;19967;-82
2021/12/28 09:01:47;;;;;;;;;;;7.30;99.90;;;;;;4871152;29;20034;-81
2021/12/28 09:04:12;;;;;;;;;;;7.40;99.90;;;;;;4863206;29;20454;-80
2021/12/28 09:06:38;;;;;;;;;;;7.30;99.90;;;;;;4867220;29;20014;-79
2021/12/28 09:09:04;;;;;;;;;;;7.50;99.90;;;;;;4874304;29;19924;-82
2021/12/28 09:11:29;;;;;;;;;;;7.50;99.90;;;;;;4858631;29;19930;-88
2021/12/28 09:13:55;;;;;;;;;;;7.50;99.90;;;;;;4864937;29;19924;-78
2021/12/28 09:16:22;;;;;;;;;;;7.60;99.90;;;;;;4870993;29;20449;-78
2021/12/28 09:18:49;;;;;;;;;;;8.10;99.90;;;;;;4859610;29;19923;-78
2021/12/28 09:21:15;;;;;;;;;;;7.70;99.90;;;;;;4853105;29;20015;-76
2021/12/28 09:23:40;;;;;;;;;;;7.70;99.90;;;;;;4873662;29;19966;-79
2021/12/28 09:26:06;;;;;;;;;;;7.80;99.90;;;;;;4860435;29;19980;-84
2021/12/28 09:28:32;;;;;;;;;;;8.40;99.90;;;;;;4854570;29;19931;-77
2021/12/28 09:30:57;;;;;;;;;;;7.80;99.90;;;;;;4857587;29;19974;-78
2021/12/28 09:33:24;;;;;;;;;;;7.80;99.90;;;;;;4856730;29;19983;-79
2021/12/28 09:35:51;;;;;;;;;;;7.80;99.90;;;;;;4850733;29;19928;-77
2021/12/28 09:38:17;;;;;;;;;;;7.80;99.90;;;;;;4874441;29;19923;-77
2021/12/28 09:40:47;;;;;;;;;;;7.80;99.90;;;;;;4853704;29;19932;-75
2021/12/28 09:43:13;;;;;;;;;;;7.80;99.90;;;;;;4851121;29;20007;-77
2021/12/28 09:45:38;;;;;;;;;;;7.80;99.90;;;;;;4866461;29;20018;-82
2021/12/28 09:48:04;;;;;;;;;;;8.30;99.90;;;;;;4870922;29;19924;-77
2021/12/28 09:50:31;;;;;;;;;;;7.80;99.90;;;;;;4878087;29;19927;-83
2021/12/28 09:55:25;;;;;;;;;;;7.80;99.90;;;;;;4929146;23;19965;-78
2021/12/28 10:13:37;;;;;;;;;;;7.20;99.90;;;;;;5644295;23;20489;-77
2021/12/28 10:16:03;;;;;;;;;;;7.70;99.90;;;;;;4882745;29;20367;-79
2021/12/28 10:18:28;;;;;;;;;;;7.80;99.90;;;;;;4909684;29;19927;-79
2021/12/28 10:21:03;;;;;;;;;;;7.70;99.90;;;;;;4899070;29;19919;-80
2021/12/28 10:23:32;;;;;;;;;;;7.70;99.90;;;;;;4902902;29;20398;-79
2021/12/28 10:25:59;;;;;;;;;;;7.70;99.90;;;;;;4913984;29;19923;-79
2021/12/28 10:28:31;;;;;;;;;;;7.70;99.90;;;;;;4886050;29;19923;-80
2021/12/28 10:33:33;;;;;;;;;;;7.80;99.90;;;;;;5240464;23;19999;-81
2021/12/28 10:36:07;;;;;;;;;;;7.70;99.90;;;;;;4914608;29;19922;-82
2021/12/28 10:38:34;;;;;;;;;;;7.80;99.90;;;;;;4933954;29;19923;-81
2021/12/28 10:41:04;;;;;;;;;;;7.80;99.90;;;;;;4934989;29;19919;-80
2021/12/28 10:43:33;;;;;;;;;;;7.80;99.90;;;;;;4937428;29;19973;-86
2021/12/28 11:04:52;;;;;;;;;;;6.20;99.90;;;;;;4917262;29;19918;-81
2021/12/28 11:07:46;;;;;;;;;;;9.20;99.90;;;;;;4901144;29;19923;-78
2021/12/28 11:14:10;;;;;;;;;;;7.70;99.90;;;;;;4917010;29;20438;-84
2021/12/28 11:16:58;;;;;;;;;;;6.90;99.90;;;;;;4897177;29;19927;-81
2021/12/28 11:29:25;;;;;;;;;;;7.80;99.90;;;;;;4894859;29;20462;-81
2021/12/28 11:32:22;;;;;;;;;;;8.00;99.90;;;;;;4879983;29;19931;-80
2021/12/28 11:34:48;;;;;;;;;;;8.30;99.90;;;;;;4881587;29;19995;-82
2021/12/28 11:37:15;;;;;;;;;;;8.30;99.90;;;;;;4879296;29;20375;-82
2021/12/28 11:39:45;;;;;;;;;;;8.30;99.90;;;;;;4877080;29;19987;-83
2021/12/28 11:42:12;;;;;;;;;;;8.20;99.90;;;;;;4881014;29;20406;-83
2021/12/28 11:44:38;;;;;;;;;;;8.20;99.90;;;;;;4879436;29;19927;-82
2021/12/28 11:47:05;;;;;;;;;;;8.20;99.90;;;;;;4881279;29;19986;-78
2021/12/28 11:50:03;;;;;;;;;;;;;;;;;;;;;
2021/12/28 11:52:42;;;;;;;;;;;8.20;99.90;;;;;;4935089;29;19973;-79
2021/12/28 11:55:09;;;;;;;;;;;8.40;99.90;;;;;;4921426;29;19934;-85
2021/12/28 11:57:34;;;;;;;;;;;8.40;99.90;;;;;;4917884;29;20022;-80
2021/12/28 12:00:02;;;;;;;;;;;8.50;99.90;;;;;;4920935;29;20017;-83
2021/12/28 12:02:56;;;;;;;;;;;8.40;99.90;;;;;;4936361;29;19923;-86
2021/12/28 12:05:23;;;;;;;;;;;8.40;99.90;;;;;;4917225;29;19997;-87
2021/12/28 12:08:10;;;;;;;;;;;8.50;99.90;;;;;;4915706;23;19927;-86
2021/12/28 12:10:37;;;;;;;;;;;8.40;99.90;;;;;;4881540;29;19930;-77
2021/12/28 12:13:04;;;;;;;;;;;8.50;99.90;;;;;;4885124;29;19927;-79
2021/12/28 12:15:40;;;;;;;;;;;8.50;99.90;;;;;;4877084;29;20295;-78
2021/12/28 12:18:08;;;;;;;;;;;8.50;99.90;;;;;;4879233;29;19935;-84
2021/12/28 12:20:34;;;;;;;;;;;8.50;99.90;;;;;;4880692;29;19967;-79
2021/12/28 12:23:14;;;;;;;;;;;8.50;99.90;;;;;;4881973;29;20027;-83
2021/12/28 12:28:05;;;;;;;;;;;8.60;99.90;;;;;;4904034;23;19947;-80
2021/12/28 12:30:44;;;;;;;;;;;8.60;99.90;;;;;;4897583;29;20158;-80
2021/12/28 12:33:29;;;;;;;;;;;8.50;99.90;;;;;;4881417;29;20393;-80
2021/12/28 12:39:36;;;;;;;;;;;8.60;99.90;;;;;;4895931;29;19959;-79
2021/12/28 12:42:30;;;;;;;;;;;8.60;99.90;;;;;;4880483;29;20228;-82
2021/12/28 12:51:54;;;;;;;;;;;8.40;99.90;;;;;;4856653;29;19931;-81
2021/12/28 13:01:54;;;;;;;;;;;8.20;99.90;;;;;;4874909;23;19971;-84
2021/12/28 13:25:11;;;;;;;;;;;8.60;99.90;;;;;;4817184;29;19977;-75
2021/12/28 13:27:38;;;;;;;;;;;8.80;99.90;;;;;;4805046;29;20032;-75
2021/12/28 13:30:08;;;;;;;;;;;8.80;99.90;;;;;;4804696;29;19929;-76
2021/12/28 13:32:37;;;;;;;;;;;8.80;99.90;;;;;;4817482;29;19928;-84
2021/12/28 13:35:08;;;;;;;;;;;8.80;99.90;;;;;;4843623;29;19920;-79
2021/12/28 13:37:53;;;;;;;;;;;8.90;99.90;;;;;;4841690;29;19931;-77
2021/12/28 13:40:26;;;;;;;;;;;8.80;99.90;;;;;;4840047;29;20399;-77
2021/12/28 13:42:55;;;;;;;;;;;8.90;99.90;;;;;;4857874;29;20006;-81
2021/12/28 13:45:34;;;;;;;;;;;9.00;99.90;;;;;;4840201;29;19931;-76
2021/12/28 13:48:01;;;;;;;;;;;8.90;99.90;;;;;;4840299;29;19924;-79
2021/12/28 13:50:27;;;;;;;;;;;8.80;99.90;;;;;;4835128;29;20035;-78
2021/12/28 13:52:54;;;;;;;;;;;8.60;99.90;;;;;;4853294;29;20388;-76
2021/12/28 13:55:38;;;;;;;;;;;8.60;99.90;;;;;;4840897;29;19931;-79
2021/12/28 13:58:04;;;;;;;;;;;8.50;99.90;;;;;;4842376;29;19924;-78
2021/12/28 14:00:32;;;;;;;;;;;8.50;99.90;;;;;;4858211;29;19931;-76
2021/12/28 14:03:02;;;;;;;;;;;8.50;99.90;;;;;;4845380;29;19932;-82
2021/12/28 14:05:28;;;;;;;;;;;8.40;99.90;;;;;;4855215;29;19931;-83
2021/12/28 14:08:21;;;;;;;;;;;8.30;99.90;;;;;;4874507;23;19929;-75
2021/12/28 14:11:12;;;;;;;;;;;7.20;99.90;;;;;;4895384;29;20525;-81
2021/12/28 14:17:01;;;;;;;;;;;8.20;99.90;;;;;;4921976;23;19927;-84
2021/12/28 14:22:48;;;;;;;;;;;5.90;99.90;;;;;;4872020;29;19969;-77
2021/12/28 14:34:01;;;;;;;;;;;8.00;99.90;;;;;;4918264;29;20332;-76
2021/12/28 14:37:10;;;;;;;;;;;7.90;99.90;;;;;;4918764;29;19931;-77
2021/12/28 14:40:16;;;;;;;;;;;6.90;99.90;;;;;;4934777;29;19925;-78
2021/12/28 14:49:18;;;;;;;;;;;7.60;99.90;;;;;;4899997;29;19954;-78
2021/12/28 14:52:16;;;;;;;;;;;7.80;99.90;;;;;;4894008;29;20051;-79
2021/12/28 14:57:55;;;;;;;;;;;7.70;99.90;;;;;;4891554;29;19930;-77
2021/12/28 15:00:25;;;;;;;;;;;7.60;99.90;;;;;;4889358;29;19927;-79
2021/12/28 15:02:53;;;;;;;;;;;7.70;99.90;;;;;;4907961;29;20029;-78
2021/12/28 15:08:41;;;;;;;;;;;7.70;99.90;;;;;;4838805;29;20019;-79
2021/12/28 15:11:06;;;;;;;;;;;9.00;99.90;;;;;;4855914;29;20014;-81
2021/12/28 15:13:38;;;;;;;;;;;7.70;99.90;;;;;;4927996;29;19922;-77
2021/12/28 15:16:03;;;;;;;;;;;7.60;99.90;;;;;;4920105;29;19959;-77
2021/12/28 15:18:32;;;;;;;;;;;7.60;99.90;;;;;;4936101;29;19931;-79
2021/12/28 15:20:57;;;;;;;;;;;7.50;99.90;;;;;;4919296;29;20311;-76
2021/12/28 15:23:23;;;;;;;;;;;7.50;99.90;;;;;;4915481;29;20050;-79
2021/12/28 15:25:50;;;;;;;;;;;8.00;99.90;;;;;;4919859;29;19977;-77
2021/12/28 15:28:15;;;;;;;;;;;7.40;99.90;;;;;;4934288;29;19923;-77
2021/12/28 15:30:43;;;;;;;;;;;8.00;99.90;;;;;;4918874;29;19929;-78
2021/12/28 15:33:08;;;;;;;;;;;7.30;99.90;;;;;;4919679;29;19934;-78
2021/12/28 15:35:37;;;;;;;;;;;7.30;99.90;;;;;;4918920;29;19927;-77
2021/12/28 15:38:04;;;;;;;;;;;7.30;99.90;;;;;;4936242;29;19923;-81
2021/12/28 15:40:36;;;;;;;;;;;7.30;99.90;;;;;;4914604;29;20354;-75
2021/12/28 15:43:02;;;;;;;;;;;7.20;99.90;;;;;;4912034;29;20017;-76
2021/12/28 15:45:28;;;;;;;;;;;7.20;99.90;;;;;;4917836;29;20533;-75
2021/12/28 15:47:53;;;;;;;;;;;7.20;99.90;;;;;;4918781;29;20430;-75
2021/12/28 15:50:22;;;;;;;;;;;7.20;99.90;;;;;;4931840;29;20362;-76
2021/12/28 15:52:48;;;;;;;;;;;7.20;99.90;;;;;;4920345;29;19923;-77
2021/12/28 15:55:13;;;;;;;;;;;7.20;99.90;;;;;;4918494;29;19918;-79
2021/12/28 15:57:39;;;;;;;;;;;7.20;99.90;;;;;;4915766;29;19927;-78
2021/12/28 16:00:15;;;;;;;;;;;7.10;99.90;;;;;;5226171;23;20021;-81
2021/12/28 16:06:22;;;;;;;;;;;7.10;99.90;;;;;;4801154;29;20393;-79
2021/12/28 16:08:56;;;;;;;;;;;6.90;99.90;;;;;;4785905;29;19929;-76
2021/12/28 16:11:22;;;;;;;;;;;6.90;99.90;;;;;;4802217;29;20023;-77
2021/12/28 16:13:49;;;;;;;;;;;6.80;99.90;;;;;;4803446;29;20474;-77
2021/12/28 16:16:14;;;;;;;;;;;6.90;99.90;;;;;;4803791;29;20309;-77
2021/12/28 16:18:50;;;;;;;;;;;6.80;99.90;;;;;;4840958;29;19923;-78
2021/12/28 16:21:24;;;;;;;;;;;6.80;99.90;;;;;;4858118;29;19920;-77
2021/12/28 16:23:50;;;;;;;;;;;6.80;99.90;;;;;;4843287;29;19943;-77
2021/12/28 16:26:16;;;;;;;;;;;6.80;99.90;;;;;;4844548;29;20375;-77
2021/12/28 16:28:42;;;;;;;;;;;6.70;99.90;;;;;;4841952;29;20423;-77
2021/12/28 16:31:08;;;;;;;;;;;6.70;99.90;;;;;;4859765;29;19920;-77
2021/12/28 16:33:35;;;;;;;;;;;6.70;99.90;;;;;;4858975;29;20011;-77
2021/12/28 16:36:06;;;;;;;;;;;6.70;99.90;;;;;;4843508;29;19924;-78
2021/12/28 16:38:32;;;;;;;;;;;6.70;99.90;;;;;;4859389;29;19942;-77
2021/12/28 16:40:58;;;;;;;;;;;6.60;99.90;;;;;;4859615;29;19935;-77
2021/12/28 16:43:23;;;;;;;;;;;6.60;99.90;;;;;;4842868;29;19924;-78
2021/12/28 16:45:49;;;;;;;;;;;6.50;99.90;;;;;;4844551;29;20032;-77